createdAt,value
2022-10-17T00:04:06.420Z,19.5
2022-10-17T00:09:06.151Z,19.3
2022-10-17T00:14:05.666Z,19.3
2022-10-17T00:19:08.120Z,19.6
2022-10-17T00:24:07.565Z,19.3
2022-10-17T00:29:07.346Z,19
2022-10-17T00:34:09.765Z,19.2
2022-10-17T00:39:12.052Z,19.5
2022-10-17T00:44:11.424Z,19.4
2022-10-17T00:49:11.467Z,18.8
2022-10-17T00:54:11.285Z,19.3
2022-10-17T00:59:11.321Z,19.2
2022-10-17T01:04:10.979Z,19.3
2022-10-17T01:09:10.831Z,19.3
2022-10-17T01:14:13.375Z,19.5
2022-10-17T01:19:12.740Z,19.1
2022-10-17T01:24:15.191Z,19.4
2022-10-17T01:29:17.359Z,19.3
2022-10-17T01:34:16.923Z,19.2
2022-10-17T01:39:16.704Z,19.2
2022-10-17T01:44:16.605Z,19.1
2022-10-17T01:49:16.418Z,19.2
2022-10-17T01:54:16.472Z,19.2
2022-10-17T01:59:18.984Z,19.1
2022-10-17T02:04:21.078Z,19.3
2022-10-17T02:09:23.516Z,19
2022-10-17T02:14:22.585Z,19.1
2022-10-17T02:19:22.501Z,18.8
2022-10-17T02:24:22.159Z,19.1
2022-10-17T02:29:24.549Z,19.3
2022-10-17T02:34:26.586Z,19.3
2022-10-17T02:39:25.851Z,19.1
2022-10-17T02:44:25.600Z,19.1
2022-10-17T02:49:25.437Z,18.8
2022-10-17T02:54:25.200Z,19
2022-10-17T02:59:25.214Z,19
2022-10-17T03:04:24.778Z,19.1
2022-10-17T03:09:27.422Z,19.2
2022-10-17T03:14:26.824Z,19
2022-10-17T03:19:26.830Z,18.9
2022-10-17T03:24:26.660Z,19
2022-10-17T03:29:26.269Z,18.8
2022-10-17T03:34:28.420Z,19
2022-10-17T03:39:27.913Z,18.6
2022-10-17T03:44:30.770Z,19.1
2022-10-17T03:49:32.784Z,19.1
2022-10-17T03:54:32.210Z,18.8
2022-10-17T03:59:31.865Z,18.7
2022-10-17T04:04:30.698Z,19
2022-10-17T04:09:30.763Z,18.8
2022-10-17T04:14:30.810Z,18.9
2022-10-17T04:19:30.569Z,18.8
2022-10-17T04:24:30.393Z,18.8
2022-10-17T04:29:30.296Z,18.6
2022-10-17T04:34:32.928Z,19
2022-10-17T04:39:35.042Z,19
2022-10-17T04:44:34.311Z,18.8
2022-10-17T04:49:34.281Z,18.9
2022-10-17T04:54:34.177Z,18.9
2022-10-17T04:59:34.244Z,18.6
2022-10-17T05:04:34.242Z,18.9
2022-10-17T05:09:34.358Z,18.6
2022-10-17T05:14:34.216Z,19.2
2022-10-17T05:19:34.286Z,19.4
2022-10-17T05:24:37.066Z,19.8
2022-10-17T05:29:36.568Z,19.7
2022-10-17T05:34:39.019Z,19.8
2022-10-17T05:39:41.131Z,20
2022-10-17T05:44:40.704Z,19.8
2022-10-17T05:49:46.203Z,19.9
2022-10-17T05:54:40.332Z,20.1
2022-10-17T05:59:40.149Z,20.1
2022-10-17T06:04:40.130Z,20.3
2022-10-17T06:09:39.895Z,20.4
2022-10-17T06:14:39.853Z,20.1
2022-10-17T06:19:39.692Z,20.4
2022-10-17T06:24:39.622Z,20.5
2022-10-17T06:29:39.596Z,20.6
2022-10-17T06:34:40.428Z,20.8
2022-10-17T06:39:42.788Z,20.9
2022-10-17T06:44:42.354Z,20.7
2022-10-17T06:49:45.106Z,21
2022-10-17T06:54:47.125Z,21
2022-10-17T06:59:49.115Z,20.9
2022-10-17T07:04:48.383Z,20.7
2022-10-17T07:09:50.778Z,20.9
2022-10-17T07:14:50.401Z,20.8
2022-10-17T07:19:50.367Z,20.8
2022-10-17T07:29:52.861Z,21
2022-10-17T07:34:52.440Z,21
2022-10-17T07:39:54.914Z,20.9
2022-10-17T07:44:57.017Z,20.9
2022-10-17T07:49:56.603Z,20.7
2022-10-17T07:54:59.295Z,21
2022-10-17T08:00:01.172Z,21
2022-10-17T08:05:03.419Z,21.1
2022-10-17T08:10:05.482Z,21.1
2022-10-17T08:15:04.704Z,21
2022-10-17T08:20:06.996Z,21.1
2022-10-17T08:25:06.336Z,21
2022-10-17T08:30:06.409Z,20.8
2022-10-17T08:35:05.846Z,20.9
2022-10-17T08:40:05.828Z,20.9
2022-10-17T08:45:05.608Z,20.8
2022-10-17T08:50:08.329Z,20.9
2022-10-17T08:55:06.041Z,20.8
2022-10-17T09:00:05.794Z,20.8
2022-10-17T09:05:05.597Z,20.8
2022-10-17T09:10:08.244Z,20.7
2022-10-17T09:15:07.483Z,20.7
2022-10-17T09:20:06.998Z,20.6
2022-10-17T09:25:06.942Z,20.7
2022-10-17T09:30:07.232Z,20.7
2022-10-17T09:35:06.665Z,20.6
2022-10-17T09:40:06.539Z,20.5
2022-10-17T09:45:06.160Z,20.4
2022-10-17T09:50:08.972Z,20.7
2022-10-17T09:55:11.235Z,20.7
2022-10-17T10:00:10.425Z,20.5
2022-10-17T10:05:13.032Z,20.6
2022-10-17T10:10:12.531Z,20.5
2022-10-17T10:15:12.385Z,20.5
2022-10-17T10:20:11.941Z,20.5
2022-10-17T10:25:11.963Z,20.5
2022-10-17T10:30:11.892Z,19.4
2022-10-17T10:35:11.712Z,20.5
2022-10-17T10:40:11.281Z,20.5
2022-10-17T10:45:19.030Z,20.2
2022-10-17T10:50:10.545Z,20.5
2022-10-17T10:55:12.965Z,20.5
2022-10-17T11:00:12.495Z,20.5
2022-10-17T11:05:12.471Z,20.5
2022-10-17T11:10:12.342Z,20.2
2022-10-17T11:15:12.456Z,20.2
2022-10-17T11:20:12.177Z,20.4
2022-10-17T11:25:12.201Z,20.2
2022-10-17T11:30:16.194Z,20.6
2022-10-17T11:35:18.095Z,20.6
2022-10-17T11:40:19.101Z,20.2
2022-10-17T11:45:20.006Z,20.4
2022-10-17T11:55:19.511Z,20.2
2022-10-17T12:00:19.294Z,20.5
2022-10-17T12:05:21.761Z,20.7
2022-10-17T12:10:21.274Z,20.5
2022-10-17T12:15:21.176Z,20.5
2022-10-17T12:20:21.284Z,20.3
2022-10-17T12:25:23.530Z,20.7
2022-10-17T12:30:22.811Z,20.6
2022-10-17T12:35:22.692Z,20.3
2022-10-17T12:40:22.478Z,20.6
2022-10-17T12:45:22.373Z,20.7
2022-10-17T12:50:25.217Z,20.9
2022-10-17T12:55:24.574Z,20.8
2022-10-17T13:00:24.743Z,20.8
2022-10-17T13:05:27.202Z,21
2022-10-17T13:15:26.160Z,21
2022-10-17T13:20:28.844Z,20.9
2022-10-17T13:25:29.990Z,21.2
2022-10-17T13:30:30.923Z,21.2
2022-10-17T13:35:48.541Z,21.3
2022-10-17T13:40:44.304Z,21.1
2022-10-17T13:45:31.028Z,20.8
2022-10-17T13:50:43.948Z,21.2
2022-10-17T13:55:33.257Z,21.2
2022-10-17T14:00:33.257Z,21.1
2022-10-17T14:05:33.067Z,21.2
2022-10-17T14:10:32.816Z,21.2
2022-10-17T14:15:32.651Z,21.1
2022-10-17T14:25:35.131Z,21.4
2022-10-17T14:30:58.136Z,21.3
2022-10-17T14:35:41.805Z,21.1
2022-10-17T14:40:37.273Z,21.3
2022-10-17T14:45:36.809Z,21.2
2022-10-17T14:50:36.962Z,21
2022-10-17T14:55:36.693Z,21.1
2022-10-17T15:00:36.658Z,21.2
2022-10-17T15:05:36.277Z,21.2
2022-10-17T15:10:35.962Z,21.2
2022-10-17T15:15:35.722Z,20.9
2022-10-17T15:20:35.525Z,20.9
2022-10-17T15:25:38.073Z,21.1
2022-10-17T15:30:37.640Z,21.1
2022-10-17T15:35:37.444Z,21.2
2022-10-17T15:40:37.015Z,21
2022-10-17T15:45:36.779Z,21.2
2022-10-17T15:50:36.645Z,21.2
2022-10-17T15:55:36.626Z,21.2
2022-10-17T16:00:38.866Z,21.2
2022-10-17T16:05:38.189Z,21.2
2022-10-17T16:10:38.068Z,21.2
2022-10-17T16:15:37.610Z,21.1
2022-10-17T16:20:37.419Z,21.2
2022-10-17T16:25:37.276Z,21.1
2022-10-17T16:30:37.079Z,21.1
2022-10-17T16:35:39.625Z,21.3
2022-10-17T16:40:41.696Z,21.2
2022-10-17T16:45:41.109Z,21.1
2022-10-17T16:50:41.182Z,20.7
2022-10-17T16:55:40.968Z,20.8
2022-10-17T17:00:40.939Z,20.6
2022-10-17T17:05:43.354Z,20.7
2022-10-17T17:10:42.710Z,20.8
2022-10-17T17:15:42.615Z,20.8
2022-10-17T17:20:45.231Z,20.9
2022-10-17T17:25:44.272Z,20.6
2022-10-17T17:30:44.098Z,20.7
2022-10-17T17:35:46.706Z,20.8
2022-10-17T17:40:50.401Z,20.8
2022-10-17T17:45:47.825Z,20.6
2022-10-17T17:50:47.665Z,20.6
2022-10-17T17:55:47.598Z,20.6
2022-10-17T18:00:49.984Z,20.2
2022-10-17T18:05:52.156Z,20.7
2022-10-17T18:10:51.279Z,20.5
2022-10-17T18:15:51.047Z,20.5
2022-10-17T18:20:51.093Z,20.4
2022-10-17T18:25:50.661Z,20.3
2022-10-17T18:30:50.421Z,20.4
2022-10-17T18:35:50.183Z,20.4
2022-10-17T18:40:50.666Z,20.4
2022-10-17T18:45:49.748Z,20.3
2022-10-17T18:50:49.511Z,20.3
2022-10-17T18:55:49.272Z,20.3
2022-10-17T19:00:49.149Z,19.9
2022-10-17T19:05:49.149Z,20.3
2022-10-17T19:10:48.891Z,18.6
2022-10-17T19:15:48.479Z,20.2
2022-10-17T19:20:48.218Z,20.2
2022-10-17T19:25:48.022Z,20.2
2022-10-17T19:30:50.807Z,20
2022-10-17T19:35:50.154Z,20.2
2022-10-17T19:40:50.090Z,20.1
2022-10-17T19:45:49.956Z,19.9
2022-10-17T19:50:49.671Z,19.8
2022-10-17T19:55:52.539Z,19.7
2022-10-17T20:00:54.673Z,19.9
2022-10-17T20:05:55.950Z,20.1
2022-10-17T20:10:55.587Z,19.7
2022-10-17T20:15:55.483Z,19.5
2022-10-17T20:20:55.375Z,19.7
2022-10-17T20:26:06.220Z,20.1
2022-10-17T20:30:57.730Z,20
2022-10-17T20:36:00.297Z,20.1
2022-10-17T20:40:59.477Z,19.9
2022-10-17T20:46:09.934Z,20
2022-10-17T20:51:01.580Z,19.9
2022-10-17T20:56:01.594Z,19.9
2022-10-17T21:01:04.161Z,19.7
2022-10-17T21:06:03.490Z,19.8
2022-10-17T21:11:03.496Z,19.8
2022-10-17T21:16:03.379Z,19.8
2022-10-17T21:26:03.423Z,19.8
2022-10-17T21:31:03.167Z,19.8
2022-10-17T21:36:03.097Z,19.8
2022-10-17T21:41:03.132Z,19.7
2022-10-17T21:46:05.980Z,19.8
2022-10-17T21:51:08.332Z,19.9
2022-10-17T21:56:07.623Z,19.7
2022-10-17T22:01:07.549Z,19.5
2022-10-17T22:06:33.362Z,19.5
2022-10-17T22:11:07.531Z,19.7
2022-10-17T22:16:10.209Z,19.7
2022-10-17T22:21:09.506Z,19.6
2022-10-17T22:26:09.072Z,19.6
2022-10-17T22:31:08.862Z,19.6
2022-10-17T22:36:08.742Z,19.6
2022-10-17T22:41:11.320Z,19.7
2022-10-17T22:46:10.549Z,19.4
2022-10-17T22:51:13.299Z,19.6
2022-10-17T22:56:15.238Z,19.6
2022-10-17T23:01:14.620Z,19.5
2022-10-17T23:06:14.387Z,19.5
2022-10-17T23:11:14.330Z,19.5
2022-10-17T23:16:14.161Z,19.5
2022-10-17T23:21:14.200Z,19.1
2022-10-17T23:26:13.997Z,19.4
2022-10-17T23:31:16.765Z,19.6
2022-10-17T23:36:19.248Z,19.6
2022-10-17T23:41:21.200Z,19.6
2022-10-17T23:46:20.496Z,19.4
2022-10-17T23:51:20.441Z,19.2
2022-10-17T23:56:22.933Z,19.5
